sensor_id;sensor_type;location;lat;lon;timestamp;temperature;humidity
49373;DHT22;44113;38.408;-122.974;2022-10-30T00:00:36;22.90;50.70
49373;DHT22;44113;38.408;-122.974;2022-10-30T00:03:03;22.90;50.60
49373;DHT22;44113;38.408;-122.974;2022-10-30T00:05:29;22.90;50.80
49373;DHT22;44113;38.408;-122.974;2022-10-30T00:07:56;22.90;50.90
49373;DHT22;44113;38.408;-122.974;2022-10-30T00:10:23;22.90;51.00
49373;DHT22;44113;38.408;-122.974;2022-10-30T00:12:50;22.90;51.20
49373;DHT22;44113;38.408;-122.974;2022-10-30T00:15:18;22.90;51.20
49373;DHT22;44113;38.408;-122.974;2022-10-30T00:17:44;22.90;51.20
49373;DHT22;44113;38.408;-122.974;2022-10-30T00:20:11;22.90;51.40
49373;DHT22;44113;38.408;-122.974;2022-10-30T00:22:37;22.90;51.30
49373;DHT22;44113;38.408;-122.974;2022-10-30T00:25:04;22.90;51.40
49373;DHT22;44113;38.408;-122.974;2022-10-30T00:27:30;22.90;51.40
49373;DHT22;44113;38.408;-122.974;2022-10-30T00:29:57;22.90;51.40
49373;DHT22;44113;38.408;-122.974;2022-10-30T00:32:23;22.90;51.40
49373;DHT22;44113;38.408;-122.974;2022-10-30T00:34:50;22.80;51.50
49373;DHT22;44113;38.408;-122.974;2022-10-30T00:37:16;22.80;51.60
49373;DHT22;44113;38.408;-122.974;2022-10-30T00:39:43;22.80;51.60
49373;DHT22;44113;38.408;-122.974;2022-10-30T00:42:14;22.80;51.70
49373;DHT22;44113;38.408;-122.974;2022-10-30T00:52:41;22.80;52.10
49373;DHT22;44113;38.408;-122.974;2022-10-30T00:55:14;22.80;52.00
49373;DHT22;44113;38.408;-122.974;2022-10-30T00:57:43;22.70;52.10
49373;DHT22;44113;38.408;-122.974;2022-10-30T01:00:11;22.70;52.20
49373;DHT22;44113;38.408;-122.974;2022-10-30T01:02:39;22.70;52.20
49373;DHT22;44113;38.408;-122.974;2022-10-30T01:05:07;22.70;52.00
49373;DHT22;44113;38.408;-122.974;2022-10-30T01:07:34;22.70;52.00
49373;DHT22;44113;38.408;-122.974;2022-10-30T01:10:01;22.70;52.10
49373;DHT22;44113;38.408;-122.974;2022-10-30T01:12:28;22.70;52.20
49373;DHT22;44113;38.408;-122.974;2022-10-30T01:14:57;22.60;52.20
49373;DHT22;44113;38.408;-122.974;2022-10-30T01:20:15;22.60;52.40
49373;DHT22;44113;38.408;-122.974;2022-10-30T01:36:48;22.60;52.60
49373;DHT22;44113;38.408;-122.974;2022-10-30T01:39:32;22.60;52.60
49373;DHT22;44113;38.408;-122.974;2022-10-30T01:41:59;22.50;52.80
49373;DHT22;44113;38.408;-122.974;2022-10-30T01:44:29;22.50;52.80
49373;DHT22;44113;38.408;-122.974;2022-10-30T01:47:19;22.50;53.40
49373;DHT22;44113;38.408;-122.974;2022-10-30T01:55:23;22.50;52.80
49373;DHT22;44113;38.408;-122.974;2022-10-30T01:58:39;22.40;53.00
49373;DHT22;44113;38.408;-122.974;2022-10-30T02:00:50;22.40;53.80
49373;DHT22;44113;38.408;-122.974;2022-10-30T02:03:18;22.40;53.30
49373;DHT22;44113;38.408;-122.974;2022-10-30T02:05:49;22.40;53.30
49373;DHT22;44113;38.408;-122.974;2022-10-30T02:08:17;22.40;53.10
49373;DHT22;44113;38.408;-122.974;2022-10-30T02:10:45;22.40;53.20
49373;DHT22;44113;38.408;-122.974;2022-10-30T02:13:14;22.40;53.00
49373;DHT22;44113;38.408;-122.974;2022-10-30T02:15:43;22.40;52.90
49373;DHT22;44113;38.408;-122.974;2022-10-30T02:18:10;22.30;52.90
49373;DHT22;44113;38.408;-122.974;2022-10-30T02:20:37;22.30;52.90
49373;DHT22;44113;38.408;-122.974;2022-10-30T02:23:03;22.30;52.80
49373;DHT22;44113;38.408;-122.974;2022-10-30T02:25:33;22.30;52.80
49373;DHT22;44113;38.408;-122.974;2022-10-30T02:28:01;22.30;53.00
49373;DHT22;44113;38.408;-122.974;2022-10-30T02:30:27;22.30;53.10
49373;DHT22;44113;38.408;-122.974;2022-10-30T02:32:55;22.30;53.20
49373;DHT22;44113;38.408;-122.974;2022-10-30T02:35:21;22.20;53.10
49373;DHT22;44113;38.408;-122.974;2022-10-30T02:37:49;22.20;53.10
49373;DHT22;44113;38.408;-122.974;2022-10-30T02:40:16;22.20;53.00
49373;DHT22;44113;38.408;-122.974;2022-10-30T02:42:43;22.20;53.10
49373;DHT22;44113;38.408;-122.974;2022-10-30T02:45:09;22.20;53.10
49373;DHT22;44113;38.408;-122.974;2022-10-30T02:47:37;22.10;53.40
49373;DHT22;44113;38.408;-122.974;2022-10-30T02:50:04;22.20;53.10
49373;DHT22;44113;38.408;-122.974;2022-10-30T02:52:31;22.10;53.50
49373;DHT22;44113;38.408;-122.974;2022-10-30T02:54:57;22.10;54.00
49373;DHT22;44113;38.408;-122.974;2022-10-30T02:57:24;22.10;54.10
49373;DHT22;44113;38.408;-122.974;2022-10-30T02:59:50;22.20;54.40
49373;DHT22;44113;38.408;-122.974;2022-10-30T03:02:17;22.10;55.40
49373;DHT22;44113;38.408;-122.974;2022-10-30T03:04:43;22.10;55.90
49373;DHT22;44113;38.408;-122.974;2022-10-30T03:07:10;22.10;55.80
49373;DHT22;44113;38.408;-122.974;2022-10-30T03:09:36;22.10;55.50
49373;DHT22;44113;38.408;-122.974;2022-10-30T03:12:04;22.10;59.80
49373;DHT22;44113;38.408;-122.974;2022-10-30T03:14:31;22.10;60.60
49373;DHT22;44113;38.408;-122.974;2022-10-30T03:16:58;22.10;61.30
49373;DHT22;44113;38.408;-122.974;2022-10-30T03:19:24;22.10;60.50
49373;DHT22;44113;38.408;-122.974;2022-10-30T03:21:53;22.10;60.30
49373;DHT22;44113;38.408;-122.974;2022-10-30T03:24:19;22.10;60.20
49373;DHT22;44113;38.408;-122.974;2022-10-30T03:26:46;22.00;59.60
49373;DHT22;44113;38.408;-122.974;2022-10-30T03:29:13;22.00;59.00
49373;DHT22;44113;38.408;-122.974;2022-10-30T03:31:39;22.00;58.90
49373;DHT22;44113;38.408;-122.974;2022-10-30T03:34:06;22.00;58.50
49373;DHT22;44113;38.408;-122.974;2022-10-30T03:36:33;22.00;58.30
49373;DHT22;44113;38.408;-122.974;2022-10-30T03:38:59;22.00;58.10
49373;DHT22;44113;38.408;-122.974;2022-10-30T03:41:27;22.00;57.90
49373;DHT22;44113;38.408;-122.974;2022-10-30T03:43:53;22.00;57.60
49373;DHT22;44113;38.408;-122.974;2022-10-30T03:46:20;22.00;57.40
49373;DHT22;44113;38.408;-122.974;2022-10-30T03:48:50;22.00;57.30
49373;DHT22;44113;38.408;-122.974;2022-10-30T03:51:16;22.00;57.80
49373;DHT22;44113;38.408;-122.974;2022-10-30T03:53:43;21.90;57.00
49373;DHT22;44113;38.408;-122.974;2022-10-30T03:56:09;22.00;57.00
49373;DHT22;44113;38.408;-122.974;2022-10-30T03:58:37;22.00;57.00
49373;DHT22;44113;38.408;-122.974;2022-10-30T04:01:06;22.00;57.10
49373;DHT22;44113;38.408;-122.974;2022-10-30T04:03:32;22.00;57.00
49373;DHT22;44113;38.408;-122.974;2022-10-30T04:05:59;22.00;56.90
49373;DHT22;44113;38.408;-122.974;2022-10-30T04:08:26;22.00;56.90
49373;DHT22;44113;38.408;-122.974;2022-10-30T04:10:53;22.00;56.80
49373;DHT22;44113;38.408;-122.974;2022-10-30T04:13:20;22.00;56.70
49373;DHT22;44113;38.408;-122.974;2022-10-30T04:15:47;22.00;56.60
49373;DHT22;44113;38.408;-122.974;2022-10-30T04:18:15;22.00;56.50
49373;DHT22;44113;38.408;-122.974;2022-10-30T04:20:44;22.00;56.60
49373;DHT22;44113;38.408;-122.974;2022-10-30T04:23:18;22.00;56.50
49373;DHT22;44113;38.408;-122.974;2022-10-30T04:25:46;22.00;56.30
49373;DHT22;44113;38.408;-122.974;2022-10-30T04:28:13;21.90;56.30
49373;DHT22;44113;38.408;-122.974;2022-10-30T04:30:39;22.00;56.30
49373;DHT22;44113;38.408;-122.974;2022-10-30T04:33:09;21.90;56.30
49373;DHT22;44113;38.408;-122.974;2022-10-30T04:35:36;21.90;56.40
49373;DHT22;44113;38.408;-122.974;2022-10-30T04:38:13;21.90;56.20
49373;DHT22;44113;38.408;-122.974;2022-10-30T04:40:42;22.00;56.40
49373;DHT22;44113;38.408;-122.974;2022-10-30T04:43:10;22.00;56.00
49373;DHT22;44113;38.408;-122.974;2022-10-30T04:45:37;22.00;56.60
49373;DHT22;44113;38.408;-122.974;2022-10-30T04:48:06;22.00;56.10
49373;DHT22;44113;38.408;-122.974;2022-10-30T04:50:33;22.00;56.30
49373;DHT22;44113;38.408;-122.974;2022-10-30T04:53:18;22.00;57.00
49373;DHT22;44113;38.408;-122.974;2022-10-30T04:55:46;22.00;57.10
49373;DHT22;44113;38.408;-122.974;2022-10-30T04:58:13;22.00;56.70
49373;DHT22;44113;38.408;-122.974;2022-10-30T05:00:40;22.00;58.00
49373;DHT22;44113;38.408;-122.974;2022-10-30T05:03:06;21.90;58.00
49373;DHT22;44113;38.408;-122.974;2022-10-30T05:05:33;21.90;57.40
49373;DHT22;44113;38.408;-122.974;2022-10-30T05:07:59;21.90;57.50
49373;DHT22;44113;38.408;-122.974;2022-10-30T05:10:25;22.00;58.00
49373;DHT22;44113;38.408;-122.974;2022-10-30T05:12:52;22.00;57.80
49373;DHT22;44113;38.408;-122.974;2022-10-30T05:15:19;22.10;57.70
49373;DHT22;44113;38.408;-122.974;2022-10-30T05:17:45;22.10;57.50
49373;DHT22;44113;38.408;-122.974;2022-10-30T05:20:15;22.10;57.40
49373;DHT22;44113;38.408;-122.974;2022-10-30T05:22:42;22.00;57.20
49373;DHT22;44113;38.408;-122.974;2022-10-30T05:25:09;22.00;57.20
49373;DHT22;44113;38.408;-122.974;2022-10-30T05:27:35;22.00;57.40
49373;DHT22;44113;38.408;-122.974;2022-10-30T05:30:02;22.00;57.30
49373;DHT22;44113;38.408;-122.974;2022-10-30T05:32:29;22.00;57.20
49373;DHT22;44113;38.408;-122.974;2022-10-30T05:34:55;21.90;57.20
49373;DHT22;44113;38.408;-122.974;2022-10-30T05:37:22;21.90;57.20
49373;DHT22;44113;38.408;-122.974;2022-10-30T05:39:49;21.90;57.00
49373;DHT22;44113;38.408;-122.974;2022-10-30T05:42:15;21.90;56.90
49373;DHT22;44113;38.408;-122.974;2022-10-30T05:44:42;21.90;57.20
49373;DHT22;44113;38.408;-122.974;2022-10-30T05:47:10;21.90;57.10
49373;DHT22;44113;38.408;-122.974;2022-10-30T05:49:37;21.90;57.60
49373;DHT22;44113;38.408;-122.974;2022-10-30T05:52:04;21.90;57.00
49373;DHT22;44113;38.408;-122.974;2022-10-30T05:54:30;21.90;57.00
49373;DHT22;44113;38.408;-122.974;2022-10-30T05:56:57;21.80;56.80
49373;DHT22;44113;38.408;-122.974;2022-10-30T05:59:23;21.80;56.90
49373;DHT22;44113;38.408;-122.974;2022-10-30T06:01:51;21.80;56.90
49373;DHT22;44113;38.408;-122.974;2022-10-30T06:04:17;21.80;56.80
49373;DHT22;44113;38.408;-122.974;2022-10-30T06:06:44;21.70;56.80
49373;DHT22;44113;38.408;-122.974;2022-10-30T06:09:11;21.70;56.70
49373;DHT22;44113;38.408;-122.974;2022-10-30T06:11:37;21.70;57.40
49373;DHT22;44113;38.408;-122.974;2022-10-30T06:14:04;21.70;56.90
49373;DHT22;44113;38.408;-122.974;2022-10-30T06:16:31;21.70;56.90
49373;DHT22;44113;38.408;-122.974;2022-10-30T06:18:57;21.70;56.90
49373;DHT22;44113;38.408;-122.974;2022-10-30T06:21:23;21.70;56.80
49373;DHT22;44113;38.408;-122.974;2022-10-30T06:23:50;21.70;56.70
49373;DHT22;44113;38.408;-122.974;2022-10-30T06:26:16;21.70;56.70
49373;DHT22;44113;38.408;-122.974;2022-10-30T06:28:43;21.70;56.60
49373;DHT22;44113;38.408;-122.974;2022-10-30T06:31:09;21.60;56.50
49373;DHT22;44113;38.408;-122.974;2022-10-30T06:33:37;21.60;56.70
49373;DHT22;44113;38.408;-122.974;2022-10-30T06:36:04;21.60;56.80
49373;DHT22;44113;38.408;-122.974;2022-10-30T06:38:31;21.50;56.90
49373;DHT22;44113;38.408;-122.974;2022-10-30T06:40:57;21.50;56.90
49373;DHT22;44113;38.408;-122.974;2022-10-30T06:43:24;21.50;57.00
49373;DHT22;44113;38.408;-122.974;2022-10-30T06:45:50;21.50;57.10
49373;DHT22;44113;38.408;-122.974;2022-10-30T06:48:16;21.40;56.90
49373;DHT22;44113;38.408;-122.974;2022-10-30T06:50:43;21.50;56.90
49373;DHT22;44113;38.408;-122.974;2022-10-30T06:53:10;21.50;56.80
49373;DHT22;44113;38.408;-122.974;2022-10-30T06:55:36;21.50;56.80
49373;DHT22;44113;38.408;-122.974;2022-10-30T06:58:03;21.40;56.70
49373;DHT22;44113;38.408;-122.974;2022-10-30T07:00:29;21.50;56.60
49373;DHT22;44113;38.408;-122.974;2022-10-30T07:03:00;21.40;56.60
49373;DHT22;44113;38.408;-122.974;2022-10-30T07:05:28;21.40;56.80
49373;DHT22;44113;38.408;-122.974;2022-10-30T07:07:57;21.40;56.90
49373;DHT22;44113;38.408;-122.974;2022-10-30T07:10:24;21.40;57.00
49373;DHT22;44113;38.408;-122.974;2022-10-30T07:12:54;21.30;56.90
49373;DHT22;44113;38.408;-122.974;2022-10-30T07:15:23;21.30;57.00
49373;DHT22;44113;38.408;-122.974;2022-10-30T07:17:59;21.30;57.10
49373;DHT22;44113;38.408;-122.974;2022-10-30T07:20:27;21.30;57.10
49373;DHT22;44113;38.408;-122.974;2022-10-30T07:22:53;21.30;57.00
49373;DHT22;44113;38.408;-122.974;2022-10-30T07:25:20;21.30;56.90
49373;DHT22;44113;38.408;-122.974;2022-10-30T07:27:49;21.30;56.80
49373;DHT22;44113;38.408;-122.974;2022-10-30T07:30:17;21.30;56.80
49373;DHT22;44113;38.408;-122.974;2022-10-30T07:32:44;21.30;56.70
49373;DHT22;44113;38.408;-122.974;2022-10-30T07:35:13;21.30;56.80
49373;DHT22;44113;38.408;-122.974;2022-10-30T07:37:40;21.30;56.70
49373;DHT22;44113;38.408;-122.974;2022-10-30T07:40:07;21.30;56.80
49373;DHT22;44113;38.408;-122.974;2022-10-30T07:42:34;21.30;56.90
49373;DHT22;44113;38.408;-122.974;2022-10-30T07:45:01;21.20;56.90
49373;DHT22;44113;38.408;-122.974;2022-10-30T07:47:27;21.20;56.90
49373;DHT22;44113;38.408;-122.974;2022-10-30T07:49:54;21.20;57.00
49373;DHT22;44113;38.408;-122.974;2022-10-30T07:52:21;21.20;57.00
49373;DHT22;44113;38.408;-122.974;2022-10-30T07:54:48;21.20;56.90
49373;DHT22;44113;38.408;-122.974;2022-10-30T07:57:14;21.10;56.80
49373;DHT22;44113;38.408;-122.974;2022-10-30T07:59:41;21.10;56.80
49373;DHT22;44113;38.408;-122.974;2022-10-30T08:02:09;21.20;56.80
49373;DHT22;44113;38.408;-122.974;2022-10-30T08:04:36;21.20;56.70
49373;DHT22;44113;38.408;-122.974;2022-10-30T08:07:03;21.20;56.70
49373;DHT22;44113;38.408;-122.974;2022-10-30T08:09:30;21.20;56.90
49373;DHT22;44113;38.408;-122.974;2022-10-30T08:11:56;21.20;56.90
49373;DHT22;44113;38.408;-122.974;2022-10-30T08:14:23;21.20;57.00
49373;DHT22;44113;38.408;-122.974;2022-10-30T08:16:50;21.10;57.00
49373;DHT22;44113;38.408;-122.974;2022-10-30T08:19:17;21.10;57.00
49373;DHT22;44113;38.408;-122.974;2022-10-30T08:21:43;21.10;57.10
49373;DHT22;44113;38.408;-122.974;2022-10-30T08:24:10;21.10;57.00
49373;DHT22;44113;38.408;-122.974;2022-10-30T08:26:37;21.10;57.00
49373;DHT22;44113;38.408;-122.974;2022-10-30T08:29:04;21.10;57.00
49373;DHT22;44113;38.408;-122.974;2022-10-30T08:31:31;21.10;56.90
49373;DHT22;44113;38.408;-122.974;2022-10-30T08:33:58;21.10;56.80
49373;DHT22;44113;38.408;-122.974;2022-10-30T08:36:25;21.10;56.90
49373;DHT22;44113;38.408;-122.974;2022-10-30T08:38:51;21.10;56.80
49373;DHT22;44113;38.408;-122.974;2022-10-30T08:41:18;21.10;57.50
49373;DHT22;44113;38.408;-122.974;2022-10-30T08:43:44;21.10;57.00
49373;DHT22;44113;38.408;-122.974;2022-10-30T08:46:10;21.10;57.00
49373;DHT22;44113;38.408;-122.974;2022-10-30T08:48:37;21.10;57.10
49373;DHT22;44113;38.408;-122.974;2022-10-30T08:51:04;21.00;57.10
49373;DHT22;44113;38.408;-122.974;2022-10-30T08:53:32;21.00;57.10
49373;DHT22;44113;38.408;-122.974;2022-10-30T08:55:58;21.00;57.10
49373;DHT22;44113;38.408;-122.974;2022-10-30T08:58:25;21.00;57.10
49373;DHT22;44113;38.408;-122.974;2022-10-30T09:00:52;21.00;56.90
49373;DHT22;44113;38.408;-122.974;2022-10-30T09:03:18;21.00;57.00
49373;DHT22;44113;38.408;-122.974;2022-10-30T09:05:45;21.00;56.90
49373;DHT22;44113;38.408;-122.974;2022-10-30T09:08:11;21.00;57.00
49373;DHT22;44113;38.408;-122.974;2022-10-30T09:10:38;21.00;56.90
49373;DHT22;44113;38.408;-122.974;2022-10-30T09:13:05;21.00;57.10
49373;DHT22;44113;38.408;-122.974;2022-10-30T09:15:32;21.00;57.10
49373;DHT22;44113;38.408;-122.974;2022-10-30T09:18:02;21.00;57.10
49373;DHT22;44113;38.408;-122.974;2022-10-30T09:20:30;21.00;57.10
49373;DHT22;44113;38.408;-122.974;2022-10-30T09:22:57;21.00;57.10
49373;DHT22;44113;38.408;-122.974;2022-10-30T09:25:24;21.00;57.30
49373;DHT22;44113;38.408;-122.974;2022-10-30T09:27:51;20.90;57.30
49373;DHT22;44113;38.408;-122.974;2022-10-30T09:30:17;20.90;57.10
49373;DHT22;44113;38.408;-122.974;2022-10-30T09:32:44;20.90;57.10
49373;DHT22;44113;38.408;-122.974;2022-10-30T09:35:10;20.90;57.00
49373;DHT22;44113;38.408;-122.974;2022-10-30T09:37:39;21.00;58.60
49373;DHT22;44113;38.408;-122.974;2022-10-30T09:40:07;21.00;58.20
49373;DHT22;44113;38.408;-122.974;2022-10-30T09:42:44;21.00;57.90
49373;DHT22;44113;38.408;-122.974;2022-10-30T09:57:03;21.00;57.70
49373;DHT22;44113;38.408;-122.974;2022-10-30T09:59:42;21.00;57.70
49373;DHT22;44113;38.408;-122.974;2022-10-30T10:05:24;21.00;57.50
49373;DHT22;44113;38.408;-122.974;2022-10-30T10:08:03;21.00;57.50
49373;DHT22;44113;38.408;-122.974;2022-10-30T10:10:44;21.00;57.40
49373;DHT22;44113;38.408;-122.974;2022-10-30T10:14:00;20.90;57.40
49373;DHT22;44113;38.408;-122.974;2022-10-30T10:16:21;20.90;57.30
49373;DHT22;44113;38.408;-122.974;2022-10-30T10:19:08;20.90;57.30
49373;DHT22;44113;38.408;-122.974;2022-10-30T10:24:21;20.90;57.30
49373;DHT22;44113;38.408;-122.974;2022-10-30T10:29:41;20.90;57.30
49373;DHT22;44113;38.408;-122.974;2022-10-30T10:40:15;20.90;57.20
49373;DHT22;44113;38.408;-122.974;2022-10-30T10:43:07;20.80;57.00
49373;DHT22;44113;38.408;-122.974;2022-10-30T10:48:34;20.90;57.70
49373;DHT22;44113;38.408;-122.974;2022-10-30T10:53:55;20.80;57.10
49373;DHT22;44113;38.408;-122.974;2022-10-30T10:56:34;20.80;57.10
49373;DHT22;44113;38.408;-122.974;2022-10-30T10:59:12;20.80;57.10
49373;DHT22;44113;38.408;-122.974;2022-10-30T11:04:45;20.80;57.10
49373;DHT22;44113;38.408;-122.974;2022-10-30T11:07:21;20.80;57.10
49373;DHT22;44113;38.408;-122.974;2022-10-30T11:09:52;20.70;57.10
49373;DHT22;44113;38.408;-122.974;2022-10-30T11:12:33;20.70;57.00
49373;DHT22;44113;38.408;-122.974;2022-10-30T11:15:25;20.70;57.00
49373;DHT22;44113;38.408;-122.974;2022-10-30T11:18:08;20.70;57.10
49373;DHT22;44113;38.408;-122.974;2022-10-30T11:26:49;20.60;57.00
49373;DHT22;44113;38.408;-122.974;2022-10-30T11:29:12;20.60;57.00
49373;DHT22;44113;38.408;-122.974;2022-10-30T11:31:39;20.60;57.00
49373;DHT22;44113;38.408;-122.974;2022-10-30T11:36:47;20.70;56.90
49373;DHT22;44113;38.408;-122.974;2022-10-30T11:39:20;20.70;56.80
49373;DHT22;44113;38.408;-122.974;2022-10-30T11:42:00;20.70;56.80
49373;DHT22;44113;38.408;-122.974;2022-10-30T11:45:00;20.70;56.70
49373;DHT22;44113;38.408;-122.974;2022-10-30T11:47:35;20.70;56.60
49373;DHT22;44113;38.408;-122.974;2022-10-30T11:50:05;20.70;56.60
49373;DHT22;44113;38.408;-122.974;2022-10-30T11:52:39;20.70;56.60
49373;DHT22;44113;38.408;-122.974;2022-10-30T11:55:52;20.70;56.50
49373;DHT22;44113;38.408;-122.974;2022-10-30T11:57:57;20.70;56.50
49373;DHT22;44113;38.408;-122.974;2022-10-30T12:00:27;20.70;56.40
49373;DHT22;44113;38.408;-122.974;2022-10-30T12:02:57;20.70;56.50
49373;DHT22;44113;38.408;-122.974;2022-10-30T12:08:09;20.70;56.50
49373;DHT22;44113;38.408;-122.974;2022-10-30T12:13:20;20.60;56.60
49373;DHT22;44113;38.408;-122.974;2022-10-30T12:15:49;20.60;56.60
49373;DHT22;44113;38.408;-122.974;2022-10-30T12:18:24;20.60;56.60
49373;DHT22;44113;38.408;-122.974;2022-10-30T12:20:54;20.60;56.50
49373;DHT22;44113;38.408;-122.974;2022-10-30T12:23:23;20.60;56.60
49373;DHT22;44113;38.408;-122.974;2022-10-30T12:25:53;20.60;56.50
49373;DHT22;44113;38.408;-122.974;2022-10-30T12:28:29;20.60;56.50
49373;DHT22;44113;38.408;-122.974;2022-10-30T12:31:18;20.60;56.40
49373;DHT22;44113;38.408;-122.974;2022-10-30T12:36:19;20.60;56.30
49373;DHT22;44113;38.408;-122.974;2022-10-30T12:41:51;20.60;56.30
49373;DHT22;44113;38.408;-122.974;2022-10-30T12:44:29;20.60;56.40
49373;DHT22;44113;38.408;-122.974;2022-10-30T12:47:28;20.50;56.40
49373;DHT22;44113;38.408;-122.974;2022-10-30T12:50:01;20.50;56.50
49373;DHT22;44113;38.408;-122.974;2022-10-30T12:52:34;20.50;56.50
49373;DHT22;44113;38.408;-122.974;2022-10-30T12:55:23;20.50;56.50
49373;DHT22;44113;38.408;-122.974;2022-10-30T12:58:02;20.50;56.40
49373;DHT22;44113;38.408;-122.974;2022-10-30T13:00:43;20.50;56.30
49373;DHT22;44113;38.408;-122.974;2022-10-30T13:06:30;20.50;56.20
49373;DHT22;44113;38.408;-122.974;2022-10-30T13:09:19;20.50;56.20
49373;DHT22;44113;38.408;-122.974;2022-10-30T13:12:13;20.50;56.10
49373;DHT22;44113;38.408;-122.974;2022-10-30T13:17:12;20.50;56.30
49373;DHT22;44113;38.408;-122.974;2022-10-30T13:19:41;20.40;56.30
49373;DHT22;44113;38.408;-122.974;2022-10-30T13:30:41;20.40;56.30
49373;DHT22;44113;38.408;-122.974;2022-10-30T13:33:24;20.40;56.30
49373;DHT22;44113;38.408;-122.974;2022-10-30T13:36:01;20.40;56.20
49373;DHT22;44113;38.408;-122.974;2022-10-30T13:41:59;20.40;56.20
49373;DHT22;44113;38.408;-122.974;2022-10-30T13:47:09;20.40;56.10
49373;DHT22;44113;38.408;-122.974;2022-10-30T13:49:48;20.40;56.20
49373;DHT22;44113;38.408;-122.974;2022-10-30T13:52:20;20.30;56.30
49373;DHT22;44113;38.408;-122.974;2022-10-30T13:55:02;20.30;56.30
49373;DHT22;44113;38.408;-122.974;2022-10-30T14:03:40;20.20;56.30
49373;DHT22;44113;38.408;-122.974;2022-10-30T14:09:10;20.20;56.30
49373;DHT22;44113;38.408;-122.974;2022-10-30T14:11:37;20.30;56.30
49373;DHT22;44113;38.408;-122.974;2022-10-30T14:14:30;20.20;56.20
49373;DHT22;44113;38.408;-122.974;2022-10-30T14:17:14;20.20;56.20
49373;DHT22;44113;38.408;-122.974;2022-10-30T14:22:33;20.20;56.10
49373;DHT22;44113;38.408;-122.974;2022-10-30T14:25:02;20.30;56.30
49373;DHT22;44113;38.408;-122.974;2022-10-30T14:27:38;20.20;56.30
49373;DHT22;44113;38.408;-122.974;2022-10-30T14:30:17;20.20;56.40
49373;DHT22;44113;38.408;-122.974;2022-10-30T14:32:49;20.10;56.30
49373;DHT22;44113;38.408;-122.974;2022-10-30T14:35:36;20.10;56.40
49373;DHT22;44113;38.408;-122.974;2022-10-30T14:40:47;20.10;56.30
49373;DHT22;44113;38.408;-122.974;2022-10-30T14:43:50;20.10;56.30
49373;DHT22;44113;38.408;-122.974;2022-10-30T14:46:46;20.10;56.20
49373;DHT22;44113;38.408;-122.974;2022-10-30T14:49:23;20.20;56.20
49373;DHT22;44113;38.408;-122.974;2022-10-30T15:00:41;20.10;56.40
49373;DHT22;44113;38.408;-122.974;2022-10-30T15:14:56;20.00;56.80
49373;DHT22;44113;38.408;-122.974;2022-10-30T15:17:31;20.00;56.70
49373;DHT22;44113;38.408;-122.974;2022-10-30T15:20:00;20.00;56.60
49373;DHT22;44113;38.408;-122.974;2022-10-30T15:22:28;20.00;56.60
49373;DHT22;44113;38.408;-122.974;2022-10-30T15:24:55;20.00;56.60
49373;DHT22;44113;38.408;-122.974;2022-10-30T15:27:23;20.00;56.50
49373;DHT22;44113;38.408;-122.974;2022-10-30T15:30:00;20.00;56.60
49373;DHT22;44113;38.408;-122.974;2022-10-30T15:32:27;20.00;56.60
49373;DHT22;44113;38.408;-122.974;2022-10-30T15:35:01;20.00;56.70
49373;DHT22;44113;38.408;-122.974;2022-10-30T15:37:30;20.00;56.80
49373;DHT22;44113;38.408;-122.974;2022-10-30T15:40:23;19.90;56.80
49373;DHT22;44113;38.408;-122.974;2022-10-30T15:42:50;19.90;56.80
49373;DHT22;44113;38.408;-122.974;2022-10-30T15:45:49;19.90;56.70
49373;DHT22;44113;38.408;-122.974;2022-10-30T15:48:22;19.90;56.70
49373;DHT22;44113;38.408;-122.974;2022-10-30T15:51:14;19.90;56.60
49373;DHT22;44113;38.408;-122.974;2022-10-30T15:53:48;19.90;56.50
49373;DHT22;44113;38.408;-122.974;2022-10-30T15:56:36;19.90;56.60
49373;DHT22;44113;38.408;-122.974;2022-10-30T15:59:05;19.90;56.50
49373;DHT22;44113;38.408;-122.974;2022-10-30T16:01:41;19.90;56.60
49373;DHT22;44113;38.408;-122.974;2022-10-30T16:04:18;19.90;56.70
49373;DHT22;44113;38.408;-122.974;2022-10-30T16:06:56;19.90;56.70
49373;DHT22;44113;38.408;-122.974;2022-10-30T16:09:24;19.90;56.80
49373;DHT22;44113;38.408;-122.974;2022-10-30T16:11:54;19.80;56.70
49373;DHT22;44113;38.408;-122.974;2022-10-30T16:14:23;19.80;56.70
49373;DHT22;44113;38.408;-122.974;2022-10-30T16:16:51;19.80;56.80
49373;DHT22;44113;38.408;-122.974;2022-10-30T16:19:24;19.80;56.70
49373;DHT22;44113;38.408;-122.974;2022-10-30T16:21:53;19.80;56.70
49373;DHT22;44113;38.408;-122.974;2022-10-30T16:24:39;19.80;56.60
49373;DHT22;44113;38.408;-122.974;2022-10-30T16:27:19;19.80;56.60
49373;DHT22;44113;38.408;-122.974;2022-10-30T16:29:52;19.80;56.50
49373;DHT22;44113;38.408;-122.974;2022-10-30T16:32:23;19.80;56.50
49373;DHT22;44113;38.408;-122.974;2022-10-30T16:34:56;19.80;56.50
49373;DHT22;44113;38.408;-122.974;2022-10-30T16:37:33;19.80;56.60
49373;DHT22;44113;38.408;-122.974;2022-10-30T16:42:37;19.80;56.80
49373;DHT22;44113;38.408;-122.974;2022-10-30T16:47:44;19.70;57.60
49373;DHT22;44113;38.408;-122.974;2022-10-30T16:50:14;19.80;58.00
49373;DHT22;44113;38.408;-122.974;2022-10-30T16:52:42;19.80;58.00
49373;DHT22;44113;38.408;-122.974;2022-10-30T16:55:19;19.70;57.80
49373;DHT22;44113;38.408;-122.974;2022-10-30T16:57:52;19.80;58.70
49373;DHT22;44113;38.408;-122.974;2022-10-30T17:00:21;19.80;57.90
49373;DHT22;44113;38.408;-122.974;2022-10-30T17:02:49;19.90;58.80
49373;DHT22;44113;38.408;-122.974;2022-10-30T17:05:32;19.90;58.20
49373;DHT22;44113;38.408;-122.974;2022-10-30T17:10:30;20.00;58.00
49373;DHT22;44113;38.408;-122.974;2022-10-30T17:16:12;20.00;58.10
49373;DHT22;44113;38.408;-122.974;2022-10-30T17:18:39;20.10;58.20
49373;DHT22;44113;38.408;-122.974;2022-10-30T17:21:11;20.00;58.20
49373;DHT22;44113;38.408;-122.974;2022-10-30T17:23:47;20.00;58.20
49373;DHT22;44113;38.408;-122.974;2022-10-30T17:26:14;20.00;58.10
49373;DHT22;44113;38.408;-122.974;2022-10-30T17:28:41;20.00;58.00
49373;DHT22;44113;38.408;-122.974;2022-10-30T17:31:18;20.00;58.10
49373;DHT22;44113;38.408;-122.974;2022-10-30T17:34:13;20.00;58.00
49373;DHT22;44113;38.408;-122.974;2022-10-30T17:36:41;20.00;58.00
49373;DHT22;44113;38.408;-122.974;2022-10-30T17:39:08;20.00;58.00
49373;DHT22;44113;38.408;-122.974;2022-10-30T17:41:35;20.00;57.90